createdAt,value
2017-07-17T00:00:35.303Z,18.2
2017-07-17T00:01:41.620Z,18.2
2017-07-17T00:02:45.420Z,18.2
2017-07-17T00:03:53.393Z,18.2
2017-07-17T00:04:59.197Z,18.2
2017-07-17T00:06:04.262Z,18.2
2017-07-17T00:07:09.867Z,18.2
2017-07-17T00:08:15.230Z,18.2
2017-07-17T00:09:20.910Z,18.1
2017-07-17T00:10:25.764Z,18.1
2017-07-17T00:11:32.136Z,18.1
2017-07-17T00:12:36.135Z,18.1
2017-07-17T00:13:40.229Z,18.1
2017-07-17T00:14:44.886Z,18.1
2017-07-17T00:15:50.640Z,18.1
2017-07-17T00:16:54.008Z,18.1
2017-07-17T00:18:00.176Z,18.1
2017-07-17T00:19:04.805Z,18.1
2017-07-17T00:20:10.079Z,18.1
2017-07-17T00:21:14.673Z,18.1
2017-07-17T00:22:18.758Z,18.1
2017-07-17T00:23:24.687Z,18.1
2017-07-17T00:24:28.742Z,18.1
2017-07-17T00:25:33.497Z,18.1
2017-07-17T00:26:40.252Z,18.0
2017-07-17T00:27:45.243Z,18.0
2017-07-17T00:28:49.469Z,18.0
2017-07-17T00:29:55.086Z,18.0
2017-07-17T00:31:00.783Z,18.0
2017-07-17T00:32:04.763Z,18.0
2017-07-17T00:33:10.114Z,18.0
2017-07-17T00:34:14.777Z,18.0
2017-07-17T00:35:18.485Z,18.0
2017-07-17T00:36:22.807Z,18.0
2017-07-17T00:37:28.677Z,18.0
2017-07-17T00:38:32.392Z,18.0
2017-07-17T00:39:37.219Z,18.0
2017-07-17T00:40:42.789Z,18.0
2017-07-17T00:41:49.689Z,18.0
2017-07-17T00:42:54.648Z,18.0
2017-07-17T00:43:58.593Z,18.0
2017-07-17T00:45:03.017Z,18.0
2017-07-17T00:46:08.366Z,17.9
2017-07-17T00:47:13.712Z,17.9
2017-07-17T00:48:21.024Z,17.9
2017-07-17T00:49:25.215Z,17.9
2017-07-17T00:50:29.721Z,17.9
2017-07-17T00:51:32.649Z,17.9
2017-07-17T00:52:39.524Z,17.9
2017-07-17T00:53:45.534Z,17.9
2017-07-17T00:54:51.682Z,17.9
2017-07-17T00:55:56.343Z,17.9
2017-07-17T00:56:59.435Z,17.9
2017-07-17T00:58:05.713Z,17.9
2017-07-17T00:59:07.870Z,17.9
2017-07-17T01:00:12.761Z,17.9
2017-07-17T01:01:17.319Z,17.9
2017-07-17T01:02:21.766Z,17.9
2017-07-17T01:03:27.741Z,17.9
2017-07-17T01:04:33.218Z,17.9
2017-07-17T01:05:36.833Z,17.9
2017-07-17T01:06:43.270Z,17.9
2017-07-17T01:07:47.711Z,17.9
2017-07-17T01:08:54.428Z,17.9
2017-07-17T01:09:58.811Z,17.9
2017-07-17T01:11:06.044Z,17.8
2017-07-17T01:12:09.954Z,17.8
2017-07-17T01:13:14.394Z,17.8
2017-07-17T01:14:20.735Z,17.8
2017-07-17T01:15:24.774Z,17.8
2017-07-17T01:16:29.224Z,17.8
2017-07-17T01:17:33.055Z,17.8
2017-07-17T01:18:40.352Z,17.8
2017-07-17T01:19:47.050Z,17.8
2017-07-17T01:20:52.103Z,17.8
2017-07-17T01:21:57.824Z,17.8
2017-07-17T01:23:02.752Z,17.8
2017-07-17T01:24:05.862Z,17.8
2017-07-17T01:25:11.033Z,17.8
2017-07-17T01:26:15.854Z,17.8
2017-07-17T01:27:23.475Z,17.8
2017-07-17T01:28:28.696Z,17.8
2017-07-17T01:29:33.993Z,17.8
2017-07-17T01:30:39.005Z,17.8
2017-07-17T01:31:44.377Z,17.8
2017-07-17T01:32:50.646Z,17.8
2017-07-17T01:33:56.933Z,17.7
2017-07-17T01:35:00.961Z,17.7
2017-07-17T01:36:05.131Z,17.7
2017-07-17T01:37:10.772Z,17.7
2017-07-17T01:38:14.274Z,17.7
2017-07-17T01:39:17.803Z,17.7
2017-07-17T01:40:22.275Z,17.7
2017-07-17T01:41:29.032Z,17.7
2017-07-17T01:42:32.970Z,17.6
2017-07-17T01:43:38.783Z,17.6
2017-07-17T01:44:42.282Z,17.6
2017-07-17T01:45:45.778Z,17.6
2017-07-17T01:46:50.086Z,17.6
2017-07-17T01:47:55.424Z,17.6
2017-07-17T01:48:59.610Z,17.6
2017-07-17T01:50:04.023Z,17.6
2017-07-17T01:51:08.799Z,17.6
2017-07-17T01:52:13.877Z,17.6
2017-07-17T01:53:20.296Z,17.6
2017-07-17T01:54:25.797Z,17.6
2017-07-17T01:55:28.099Z,17.6
2017-07-17T01:56:32.687Z,17.6
2017-07-17T01:57:37.307Z,17.6
2017-07-17T01:58:43.023Z,17.6
2017-07-17T01:59:47.589Z,17.6
2017-07-17T02:00:52.837Z,17.6
2017-07-17T02:01:56.808Z,17.6
2017-07-17T02:02:59.616Z,17.5
2017-07-17T02:04:04.813Z,17.5
2017-07-17T02:05:10.813Z,17.5
2017-07-17T02:06:13.932Z,17.5
2017-07-17T02:07:21.126Z,17.5
2017-07-17T02:08:27.963Z,17.5
2017-07-17T02:09:34.839Z,17.5
2017-07-17T02:10:37.393Z,17.5
2017-07-17T02:11:41.718Z,17.5
2017-07-17T02:12:46.510Z,17.5
2017-07-17T02:13:52.650Z,17.5
2017-07-17T02:14:58.503Z,17.5
2017-07-17T02:16:04.514Z,17.5
2017-07-17T02:17:09.475Z,17.5
2017-07-17T02:18:15.029Z,17.5
2017-07-17T02:19:20.344Z,17.5
2017-07-17T02:20:22.181Z,17.5
2017-07-17T02:21:26.998Z,17.5
2017-07-17T02:22:32.981Z,17.5
2017-07-17T02:23:37.182Z,17.5
2017-07-17T02:24:41.306Z,17.5
2017-07-17T02:25:47.243Z,17.5
2017-07-17T02:26:50.618Z,17.5
2017-07-17T02:27:55.468Z,17.5
2017-07-17T02:29:01.022Z,17.5
2017-07-17T02:30:04.833Z,17.5
2017-07-17T02:31:10.920Z,17.5
2017-07-17T02:32:16.957Z,17.5
2017-07-17T02:33:21.803Z,17.5
2017-07-17T02:34:24.794Z,17.5
2017-07-17T02:35:31.861Z,17.5
2017-07-17T02:36:35.888Z,17.5
2017-07-17T02:37:41.870Z,17.5
2017-07-17T02:38:46.922Z,17.5
2017-07-17T02:39:52.835Z,17.5
2017-07-17T02:40:58.444Z,17.5
2017-07-17T02:42:04.234Z,17.5
2017-07-17T02:43:09.010Z,17.5
2017-07-17T02:44:15.629Z,17.5
2017-07-17T02:45:21.667Z,17.5
2017-07-17T02:46:28.638Z,17.5
2017-07-17T02:47:34.739Z,17.5
2017-07-17T02:48:39.904Z,17.5
2017-07-17T02:49:43.505Z,17.5
2017-07-17T02:50:48.169Z,17.5
2017-07-17T02:51:52.724Z,17.5
2017-07-17T02:52:59.302Z,17.5
2017-07-17T02:54:05.554Z,17.5
2017-07-17T02:55:10.218Z,17.5
2017-07-17T02:56:14.051Z,17.5
2017-07-17T02:57:19.120Z,17.5
2017-07-17T02:58:23.270Z,17.5
2017-07-17T02:59:29.490Z,17.5
2017-07-17T03:00:35.551Z,17.5
2017-07-17T03:01:40.138Z,17.5
2017-07-17T03:02:46.742Z,17.5
2017-07-17T03:03:53.492Z,17.5
2017-07-17T03:04:59.913Z,17.5
2017-07-17T03:06:04.673Z,17.4
2017-07-17T03:07:09.606Z,17.4
2017-07-17T03:08:15.484Z,17.4
2017-07-17T03:09:20.086Z,17.4
2017-07-17T03:10:23.583Z,17.4
2017-07-17T03:11:28.174Z,17.4
2017-07-17T03:12:33.536Z,17.4
2017-07-17T03:13:39.688Z,17.3
2017-07-17T03:14:45.523Z,17.3
2017-07-17T03:15:50.141Z,17.3
2017-07-17T03:16:55.431Z,17.3
2017-07-17T03:17:59.379Z,17.3
2017-07-17T03:19:02.323Z,17.3
2017-07-17T03:20:06.129Z,17.2
2017-07-17T03:21:10.337Z,17.2
2017-07-17T03:22:14.614Z,17.2
2017-07-17T03:23:19.227Z,17.2
2017-07-17T03:24:24.613Z,17.2
2017-07-17T03:25:31.551Z,17.2
2017-07-17T03:26:36.954Z,17.2
2017-07-17T03:27:39.660Z,17.2
2017-07-17T03:28:44.674Z,17.1
2017-07-17T03:29:51.201Z,17.1
2017-07-17T03:30:55.752Z,17.2
2017-07-17T03:32:00.495Z,17.2
2017-07-17T03:33:04.104Z,17.2
2017-07-17T03:34:08.832Z,17.1
2017-07-17T03:35:15.039Z,17.1
2017-07-17T03:36:19.980Z,17.1
2017-07-17T03:37:24.275Z,17.1
2017-07-17T03:38:29.978Z,17.1
2017-07-17T03:39:34.523Z,17.1
2017-07-17T03:40:38.897Z,17.1
2017-07-17T03:41:44.968Z,17.1
2017-07-17T03:42:48.389Z,17.2
2017-07-17T03:43:53.595Z,17.1
2017-07-17T03:44:57.571Z,17.1
2017-07-17T03:46:03.480Z,17.1
2017-07-17T03:47:09.668Z,17.1
2017-07-17T03:48:13.306Z,17.1
2017-07-17T03:49:19.728Z,17.1
2017-07-17T03:50:25.688Z,17.1
2017-07-17T03:51:33.756Z,17.1
2017-07-17T03:52:38.652Z,17.1
2017-07-17T03:53:45.557Z,17.1
2017-07-17T03:54:53.468Z,17.1
2017-07-17T03:55:59.671Z,17.1
2017-07-17T03:57:05.200Z,17.1
2017-07-17T03:58:09.997Z,17.1
2017-07-17T03:59:13.620Z,17.1
2017-07-17T04:00:17.642Z,17.1
2017-07-17T04:01:23.709Z,17.1
2017-07-17T04:02:30.269Z,17.2
2017-07-17T04:03:37.156Z,17.1
2017-07-17T04:04:46.151Z,17.2
2017-07-17T04:05:52.590Z,17.2
2017-07-17T04:06:58.010Z,17.2
2017-07-17T04:08:02.860Z,17.2
2017-07-17T04:09:06.472Z,17.2
2017-07-17T04:10:11.415Z,17.2
2017-07-17T04:11:17.517Z,17.2
2017-07-17T04:12:23.017Z,17.3
2017-07-17T04:13:27.156Z,17.2
2017-07-17T04:14:34.073Z,17.3
2017-07-17T04:15:38.865Z,17.3
2017-07-17T04:16:41.966Z,17.3
2017-07-17T04:17:48.660Z,17.3
2017-07-17T04:18:52.492Z,17.3
2017-07-17T04:19:58.153Z,17.3
2017-07-17T04:21:03.653Z,17.3
2017-07-17T04:22:09.036Z,17.3
2017-07-17T04:23:12.553Z,17.3
2017-07-17T04:24:15.356Z,17.4
2017-07-17T04:25:20.220Z,17.3
2017-07-17T04:26:25.769Z,17.4
2017-07-17T04:27:29.830Z,17.4
2017-07-17T04:28:34.845Z,17.4
2017-07-17T04:29:41.403Z,17.4
2017-07-17T04:30:46.950Z,17.4
2017-07-17T04:31:52.202Z,17.4
2017-07-17T04:32:56.547Z,17.4
2017-07-17T04:34:03.758Z,17.5
2017-07-17T04:35:10.346Z,17.5
2017-07-17T04:36:14.290Z,17.5
2017-07-17T04:37:18.558Z,17.5
2017-07-17T04:38:22.753Z,17.5
2017-07-17T04:39:27.651Z,17.5
2017-07-17T04:40:32.265Z,17.6
2017-07-17T04:41:36.217Z,17.6
2017-07-17T04:42:41.261Z,17.6
2017-07-17T04:43:46.555Z,17.6
2017-07-17T04:44:54.033Z,17.7
2017-07-17T04:45:59.196Z,17.7
2017-07-17T04:47:05.041Z,17.8
2017-07-17T04:48:12.083Z,17.8
2017-07-17T04:49:18.576Z,17.9
2017-07-17T04:50:19.802Z,17.9
2017-07-17T04:51:23.587Z,17.9
2017-07-17T04:52:27.984Z,18.0
2017-07-17T04:53:34.082Z,18.1
2017-07-17T04:54:39.607Z,18.1
2017-07-17T04:55:43.588Z,18.2
2017-07-17T04:56:48.321Z,18.2
2017-07-17T04:57:54.078Z,18.4
2017-07-17T04:58:58.799Z,18.4
2017-07-17T05:00:01.899Z,18.5
2017-07-17T05:01:09.596Z,18.6
2017-07-17T05:02:14.250Z,18.6
2017-07-17T05:03:20.612Z,18.7
2017-07-17T05:04:24.188Z,18.7
2017-07-17T05:05:28.858Z,18.7
2017-07-17T05:06:35.105Z,18.7
2017-07-17T05:07:39.087Z,18.8
2017-07-17T05:08:46.506Z,18.9
2017-07-17T05:09:51.909Z,18.9
2017-07-17T05:10:57.575Z,19.0
2017-07-17T05:12:01.463Z,19.1
2017-07-17T05:13:08.893Z,19.2
2017-07-17T05:14:14.386Z,19.3
2017-07-17T05:15:18.203Z,19.4
2017-07-17T05:16:24.183Z,19.4
2017-07-17T05:17:28.694Z,19.5
2017-07-17T05:18:33.624Z,19.6
2017-07-17T05:19:36.919Z,19.8
2017-07-17T05:20:41.462Z,19.8
2017-07-17T05:21:46.814Z,19.9
2017-07-17T05:22:50.058Z,20.0
2017-07-17T05:23:55.132Z,20.2
2017-07-17T05:25:01.650Z,20.2
2017-07-17T05:26:07.052Z,20.3
2017-07-17T05:27:12.137Z,20.3
2017-07-17T05:28:16.464Z,20.2
2017-07-17T05:29:23.106Z,20.2
2017-07-17T05:30:27.408Z,20.3
2017-07-17T05:31:33.733Z,20.3
2017-07-17T05:32:38.197Z,20.3
2017-07-17T05:33:44.116Z,20.2
2017-07-17T05:34:48.457Z,20.2
2017-07-17T05:35:55.762Z,20.1
2017-07-17T05:36:59.637Z,20.1
2017-07-17T05:38:08.155Z,20.1
2017-07-17T05:39:14.313Z,20.0
2017-07-17T05:40:19.545Z,20.0
2017-07-17T05:41:26.781Z,20.0
2017-07-17T05:42:31.357Z,20.0
2017-07-17T05:43:36.664Z,20.1
2017-07-17T05:44:40.834Z,20.1
2017-07-17T05:45:45.348Z,20.1
2017-07-17T05:46:49.073Z,20.2
2017-07-17T05:47:57.683Z,20.3
2017-07-17T05:49:00.683Z,20.4
2017-07-17T05:50:05.233Z,20.5
2017-07-17T05:51:11.347Z,20.5
2017-07-17T05:52:18.181Z,20.6
2017-07-17T05:53:21.603Z,20.7
2017-07-17T05:54:26.369Z,20.7
2017-07-17T05:55:30.395Z,20.8
2017-07-17T05:56:36.241Z,20.9
2017-07-17T05:57:41.255Z,20.9
2017-07-17T05:58:47.190Z,20.9
2017-07-17T05:59:51.321Z,20.9
2017-07-17T06:00:55.177Z,20.9
2017-07-17T06:02:00.194Z,21.0
2017-07-17T06:03:06.861Z,21.1
2017-07-17T06:04:11.733Z,21.2
2017-07-17T06:05:17.165Z,21.3
2017-07-17T06:06:22.231Z,21.2
2017-07-17T06:07:27.714Z,21.3
2017-07-17T06:08:32.065Z,21.3
2017-07-17T06:09:37.209Z,21.3
2017-07-17T06:10:42.635Z,21.4
2017-07-17T06:11:47.725Z,21.4
2017-07-17T06:12:54.333Z,21.5
2017-07-17T06:13:59.488Z,21.5
2017-07-17T06:15:05.719Z,21.6
2017-07-17T06:16:09.732Z,21.6
2017-07-17T06:17:15.630Z,21.6
2017-07-17T06:18:22.044Z,21.6
2017-07-17T06:19:25.745Z,21.7
2017-07-17T06:20:31.561Z,21.7
2017-07-17T06:21:36.109Z,21.8
2017-07-17T06:22:42.850Z,21.9
2017-07-17T06:23:49.952Z,22.0
2017-07-17T06:24:56.015Z,22.2
2017-07-17T06:26:03.156Z,22.3
2017-07-17T06:27:08.349Z,22.5
2017-07-17T06:28:12.145Z,22.6
2017-07-17T06:29:15.382Z,22.6
2017-07-17T06:30:20.310Z,22.7
2017-07-17T06:31:27.248Z,22.8
2017-07-17T06:32:34.496Z,22.8
2017-07-17T06:33:41.266Z,22.8
2017-07-17T06:34:46.496Z,22.8
2017-07-17T06:35:50.807Z,22.8
2017-07-17T06:36:57.860Z,22.8
2017-07-17T06:38:02.523Z,22.9
2017-07-17T06:39:09.492Z,22.8
2017-07-17T06:40:17.900Z,22.8
2017-07-17T06:41:23.209Z,22.9
2017-07-17T06:42:28.542Z,23.0
2017-07-17T06:43:34.759Z,23.0
2017-07-17T06:44:43.783Z,22.9
2017-07-17T06:45:47.807Z,22.9
2017-07-17T06:46:52.449Z,22.9
2017-07-17T06:48:01.275Z,22.8
2017-07-17T06:49:08.296Z,22.9
2017-07-17T06:50:11.787Z,22.9
2017-07-17T06:51:17.557Z,22.9
2017-07-17T06:52:22.950Z,22.8
2017-07-17T06:53:31.786Z,22.8
2017-07-17T06:54:39.093Z,22.8
2017-07-17T06:55:44.792Z,22.8
2017-07-17T06:56:53.291Z,22.8
2017-07-17T06:57:58.010Z,22.8
2017-07-17T06:59:06.289Z,22.8
2017-07-17T07:00:12.231Z,22.8
2017-07-17T07:01:17.277Z,22.9
2017-07-17T07:02:23.795Z,22.9
2017-07-17T07:03:28.832Z,23.0
2017-07-17T07:04:33.655Z,23.0
2017-07-17T07:05:38.990Z,23.1
2017-07-17T07:06:45.298Z,23.1
2017-07-17T07:07:48.683Z,23.3
2017-07-17T07:08:52.416Z,23.5
2017-07-17T07:09:58.018Z,23.8
2017-07-17T07:11:05.324Z,23.9
2017-07-17T07:12:11.145Z,24.1
2017-07-17T07:13:15.019Z,24.3
2017-07-17T07:14:19.078Z,24.5
2017-07-17T07:15:25.532Z,24.6
2017-07-17T07:16:31.207Z,24.7
2017-07-17T07:17:39.958Z,24.7
2017-07-17T07:18:47.822Z,24.7
2017-07-17T07:19:56.618Z,24.6
2017-07-17T07:21:01.412Z,24.4
2017-07-17T07:22:09.327Z,24.3
2017-07-17T07:23:14.447Z,24.4
2017-07-17T07:24:20.528Z,24.5
2017-07-17T07:25:28.848Z,24.5
2017-07-17T07:26:33.902Z,24.4
2017-07-17T07:27:39.185Z,24.2
2017-07-17T07:28:44.842Z,24.2
2017-07-17T07:29:50.474Z,24.2
2017-07-17T07:30:55.527Z,24.3
2017-07-17T07:32:00.143Z,24.4
2017-07-17T07:33:05.558Z,24.4
2017-07-17T07:34:11.620Z,24.5
2017-07-17T07:35:16.147Z,24.5
2017-07-17T07:36:22.641Z,24.6
2017-07-17T07:37:28.519Z,24.7
2017-07-17T07:38:35.424Z,24.8
2017-07-17T07:39:41.865Z,24.9
2017-07-17T07:40:44.796Z,25.1
2017-07-17T07:41:48.917Z,25.2
2017-07-17T07:42:53.575Z,25.4
2017-07-17T07:43:57.550Z,25.5
2017-07-17T07:45:02.711Z,25.5
2017-07-17T07:46:08.259Z,25.4
2017-07-17T07:47:13.376Z,25.4
2017-07-17T07:48:20.051Z,25.5
2017-07-17T07:49:28.374Z,25.8
2017-07-17T07:50:32.638Z,26.0
2017-07-17T07:51:37.839Z,26.3
2017-07-17T07:52:45.195Z,26.4
2017-07-17T07:53:52.985Z,26.5
2017-07-17T07:54:58.600Z,26.6
2017-07-17T07:56:02.575Z,26.5
2017-07-17T07:57:09.074Z,26.7
2017-07-17T07:58:14.521Z,26.8
2017-07-17T07:59:19.865Z,26.9
2017-07-17T08:00:23.914Z,27.0
2017-07-17T08:01:29.199Z,27.0
2017-07-17T08:02:34.061Z,27.0
2017-07-17T08:03:41.529Z,27.2
2017-07-17T08:04:48.913Z,27.3
2017-07-17T08:05:54.166Z,27.6
2017-07-17T08:06:59.552Z,27.9
2017-07-17T08:08:04.905Z,28.1
2017-07-17T08:09:09.995Z,28.2
2017-07-17T08:10:15.474Z,28.3
2017-07-17T08:11:20.504Z,28.3
2017-07-17T08:12:27.545Z,28.0
2017-07-17T08:13:32.788Z,27.8
2017-07-17T08:14:38.211Z,27.8
2017-07-17T08:15:43.141Z,27.7
2017-07-17T08:16:49.268Z,27.6
2017-07-17T08:17:57.614Z,27.6
2017-07-17T08:19:04.926Z,27.6
2017-07-17T08:20:11.445Z,27.6
2017-07-17T08:21:16.442Z,27.5
2017-07-17T08:22:20.785Z,27.4
2017-07-17T08:23:27.442Z,27.4
2017-07-17T08:24:32.582Z,27.4
2017-07-17T08:25:36.197Z,27.4
2017-07-17T08:26:40.640Z,27.3
2017-07-17T08:27:45.735Z,27.3
2017-07-17T08:28:49.442Z,27.3
2017-07-17T08:29:53.687Z,27.4
2017-07-17T08:30:59.863Z,27.5
2017-07-17T08:32:06.211Z,27.5
2017-07-17T08:33:10.118Z,27.6
2017-07-17T08:34:16.682Z,27.6
2017-07-17T08:35:20.431Z,27.7
2017-07-17T08:36:24.651Z,27.7
2017-07-17T08:37:33.328Z,27.7
2017-07-17T08:38:37.334Z,27.7
2017-07-17T08:39:40.569Z,27.8
2017-07-17T08:40:47.962Z,27.8
2017-07-17T08:41:52.768Z,27.7
2017-07-17T08:42:58.081Z,27.8
2017-07-17T08:44:04.069Z,27.9
2017-07-17T08:45:08.321Z,28.2
2017-07-17T08:46:15.696Z,28.3
2017-07-17T08:47:20.979Z,28.5
2017-07-17T08:48:24.362Z,28.5
2017-07-17T08:49:28.807Z,28.6
2017-07-17T08:50:34.882Z,28.7
2017-07-17T08:51:40.336Z,28.7
2017-07-17T08:52:45.714Z,28.7
2017-07-17T08:53:50.770Z,28.8
2017-07-17T08:54:55.836Z,28.8
2017-07-17T08:56:02.314Z,29.0
2017-07-17T08:57:08.490Z,29.0
2017-07-17T08:58:14.993Z,28.9
2017-07-17T08:59:18.337Z,28.9
2017-07-17T09:00:26.275Z,28.9
2017-07-17T09:01:33.503Z,28.8
2017-07-17T09:02:39.502Z,28.7
2017-07-17T09:03:43.313Z,28.6
2017-07-17T09:04:48.245Z,28.4
2017-07-17T09:05:53.565Z,28.3
2017-07-17T09:06:59.734Z,28.2
2017-07-17T09:08:05.600Z,28.2
2017-07-17T09:09:11.139Z,28.3
2017-07-17T09:10:16.780Z,28.4
2017-07-17T09:11:21.571Z,28.5
2017-07-17T09:12:25.779Z,28.6
2017-07-17T09:13:30.597Z,28.7
2017-07-17T09:14:35.092Z,28.8
2017-07-17T09:15:39.941Z,28.9
2017-07-17T09:16:46.607Z,29.0
2017-07-17T09:17:51.530Z,29.2
2017-07-17T09:18:55.909Z,29.4
2017-07-17T09:20:00.536Z,29.6
2017-07-17T09:21:04.299Z,29.8
2017-07-17T09:22:10.751Z,29.9
2017-07-17T09:23:16.091Z,29.9
2017-07-17T09:24:22.539Z,30.1
2017-07-17T09:25:27.891Z,30.2
2017-07-17T09:26:33.103Z,30.2
2017-07-17T09:27:40.119Z,30.0
2017-07-17T09:28:47.554Z,29.9
2017-07-17T09:29:51.451Z,30.1
2017-07-17T09:30:59.947Z,30.2
2017-07-17T09:32:04.348Z,30.0
2017-07-17T09:33:10.469Z,30.0
2017-07-17T09:34:14.951Z,29.9
2017-07-17T09:35:20.652Z,29.8
2017-07-17T09:36:26.058Z,29.8
2017-07-17T09:37:30.933Z,29.8
2017-07-17T09:38:38.065Z,29.8
2017-07-17T09:39:43.714Z,29.8
2017-07-17T09:40:49.487Z,30.0
2017-07-17T09:41:53.855Z,30.2
2017-07-17T09:42:59.587Z,30.2
2017-07-17T09:44:07.577Z,30.1
2017-07-17T09:45:15.141Z,30.1
2017-07-17T09:46:21.575Z,30.1
2017-07-17T09:47:25.805Z,30.4
2017-07-17T09:48:30.733Z,30.7
2017-07-17T09:49:35.077Z,30.9
2017-07-17T09:50:42.220Z,31.0
2017-07-17T09:51:46.168Z,30.8
2017-07-17T09:52:51.525Z,30.5
2017-07-17T09:53:57.043Z,30.3
2017-07-17T09:55:04.242Z,30.3
2017-07-17T09:56:10.531Z,30.2
2017-07-17T09:57:15.956Z,29.8
2017-07-17T09:58:20.596Z,29.5
2017-07-17T09:59:28.062Z,29.6
2017-07-17T10:00:35.826Z,29.8
2017-07-17T10:01:40.605Z,29.8
2017-07-17T10:02:47.151Z,29.8
2017-07-17T10:03:52.380Z,29.8
2017-07-17T10:04:57.095Z,29.8
2017-07-17T10:06:02.677Z,29.8
2017-07-17T10:07:08.061Z,29.8
2017-07-17T10:08:15.045Z,29.8
2017-07-17T10:09:19.376Z,29.9
2017-07-17T10:10:28.645Z,29.9
2017-07-17T10:11:35.305Z,30.0
2017-07-17T10:12:43.855Z,29.9
2017-07-17T10:13:47.909Z,29.9
2017-07-17T10:14:52.494Z,29.9
2017-07-17T10:15:56.996Z,29.8
2017-07-17T10:17:05.072Z,29.8
2017-07-17T10:18:10.348Z,29.8
2017-07-17T10:19:15.720Z,29.9
2017-07-17T10:20:22.834Z,29.9
2017-07-17T10:21:29.270Z,29.9
2017-07-17T10:22:35.357Z,30.2
2017-07-17T10:23:40.354Z,30.3
2017-07-17T10:24:46.508Z,30.4
2017-07-17T10:25:51.113Z,30.3
2017-07-17T10:26:59.122Z,30.3
2017-07-17T10:28:02.850Z,30.4
2017-07-17T10:29:08.715Z,30.5
2017-07-17T10:30:13.703Z,30.3
2017-07-17T10:31:19.924Z,30.2
2017-07-17T10:32:24.336Z,30.2
2017-07-17T10:33:29.763Z,30.1
2017-07-17T10:34:39.163Z,30.3
2017-07-17T10:35:44.163Z,30.4
2017-07-17T10:36:49.096Z,30.3
2017-07-17T10:37:54.884Z,30.2
2017-07-17T10:39:01.827Z,30.1
2017-07-17T10:40:04.057Z,30.3
2017-07-17T10:41:08.494Z,30.4
2017-07-17T10:42:10.739Z,30.6
2017-07-17T10:43:12.936Z,30.8
2017-07-17T10:44:15.139Z,30.9
2017-07-17T10:45:17.321Z,31.0
2017-07-17T10:46:19.507Z,31.0
2017-07-17T10:47:21.732Z,30.9
2017-07-17T10:48:23.920Z,30.9
2017-07-17T10:49:26.140Z,31.0
2017-07-17T10:50:28.307Z,31.2
2017-07-17T10:51:30.480Z,31.2
2017-07-17T10:52:32.663Z,31.4
2017-07-17T10:53:34.957Z,31.6
2017-07-17T10:54:37.127Z,31.7
2017-07-17T10:55:39.351Z,31.5
2017-07-17T10:56:41.529Z,31.6
2017-07-17T10:57:43.735Z,31.8
2017-07-17T10:58:45.959Z,32.1
2017-07-17T10:59:48.103Z,32.3
2017-07-17T11:00:50.269Z,32.4
2017-07-17T11:01:52.461Z,32.6
2017-07-17T11:02:54.663Z,32.6
2017-07-17T11:03:56.827Z,32.7
2017-07-17T11:04:59.008Z,32.7
2017-07-17T11:06:01.194Z,32.7
2017-07-17T11:07:03.351Z,32.7
2017-07-17T11:08:05.509Z,32.5
2017-07-17T11:09:07.698Z,32.7
2017-07-17T11:10:09.854Z,32.7
2017-07-17T11:11:12.090Z,32.7
2017-07-17T11:12:14.253Z,32.7
2017-07-17T11:13:16.431Z,32.5
2017-07-17T11:14:18.613Z,32.5
2017-07-17T11:15:20.832Z,32.6
2017-07-17T11:16:23.012Z,32.9
2017-07-17T11:17:25.208Z,33.2
2017-07-17T11:18:27.396Z,33.3
2017-07-17T11:19:29.573Z,33.3
2017-07-17T11:20:31.742Z,33.3
2017-07-17T11:21:33.915Z,33.3
2017-07-17T11:22:36.085Z,33.4
2017-07-17T11:23:38.290Z,33.5
2017-07-17T11:24:40.569Z,33.5
2017-07-17T11:25:42.749Z,33.7
2017-07-17T11:26:44.932Z,33.9
2017-07-17T11:27:47.109Z,34.0
2017-07-17T11:28:49.296Z,34.2
2017-07-17T11:29:51.471Z,34.4
2017-07-17T11:30:53.645Z,34.4
2017-07-17T11:31:55.817Z,34.4
2017-07-17T11:32:57.975Z,34.2
2017-07-17T11:34:00.167Z,33.6
2017-07-17T11:35:02.326Z,33.5
2017-07-17T11:36:04.502Z,33.5
2017-07-17T11:37:06.678Z,33.5
2017-07-17T11:38:08.863Z,33.5
2017-07-17T11:39:11.063Z,33.7
2017-07-17T11:40:13.284Z,33.8
2017-07-17T11:41:15.470Z,33.6
2017-07-17T11:42:17.709Z,33.5
2017-07-17T11:43:19.948Z,33.6
2017-07-17T11:44:22.177Z,33.6
2017-07-17T11:45:25.146Z,33.6
